Terminal Aerodrome Forecast
Issued by NWS

Home | Current Version | Previous Version | Text Only | Print | Product List | Glossary On
Versions: 1 2 3 4 5 6 7 8 9 10 11 12 13 14 15
000
FTUS46 KMTR 281100
TAFOAK
TAF
KOAK 281137Z 2812/2918 33006KT P6SM OVC011
     FM281700 29006KT P6SM FEW010 SCT200
     FM282000 29012KT P6SM SCT200
     FM290400 31006KT P6SM FEW010 SCT200
     FM290900 29005KT P6SM OVC010=

USA.gov is the U.S. government's official web portal to all federal, state and local government web resources and services.